Time;durP1;ratioP1;P1;durP2;ratioP2;P2;SDS_P1;SDS_P2;PMS_P1;PMS_P2;Temp;Humidity;BMP_temperature;BMP_pressure;BME280_temperature;BME280_humidity;BME280_pressure;Samples;Min_cycle;Max_cycle;Signal;HPM_P1;HPM_P2
2023/12/22 00:02:23;;;;;;;15.35;4.13;;;5.60;99.90;;;;;;5077652;28;20028;-92
2023/12/22 00:04:48;;;;;;;16.13;4.35;;;5.80;99.90;;;;;;5069201;28;20362;-91
2023/12/22 00:07:14;;;;;;;16.83;3.63;;;5.70;99.90;;;;;;5088580;28;20136;-91
2023/12/22 00:09:40;;;;;;;20.17;3.78;;;5.80;99.90;;;;;;5072401;28;20048;-91
2023/12/22 00:12:06;;;;;;;19.52;4.22;;;5.90;99.90;;;;;;5051845;28;21050;-92
2023/12/22 00:14:32;;;;;;;13.50;4.18;;;6.00;99.90;;;;;;5037809;28;20062;-91
2023/12/22 00:16:58;;;;;;;17.73;3.40;;;6.10;99.90;;;;;;5062430;28;20028;-92
2023/12/22 00:19:23;;;;;;;11.30;3.05;;;6.40;99.90;;;;;;5082227;28;20063;-91
2023/12/22 00:21:49;;;;;;;14.55;4.25;;;6.30;99.90;;;;;;5069142;28;20020;-92
2023/12/22 00:24:15;;;;;;;9.50;2.50;;;6.10;99.90;;;;;;5052490;28;20294;-91
2023/12/22 00:26:41;;;;;;;13.63;3.33;;;5.70;99.90;;;;;;5037360;28;20066;-91
2023/12/22 00:29:06;;;;;;;12.13;2.72;;;5.60;99.90;;;;;;5032286;28;20041;-92
2023/12/22 00:31:32;;;;;;;9.73;2.67;;;5.50;99.90;;;;;;5066810;28;20082;-91
2023/12/22 00:33:58;;;;;;;11.98;2.67;;;5.60;99.90;;;;;;5054952;28;20028;-91
2023/12/22 00:36:24;;;;;;;12.65;2.92;;;5.60;99.90;;;;;;5056393;28;20107;-91
2023/12/22 00:38:50;;;;;;;12.05;3.08;;;5.60;99.90;;;;;;5073168;28;20288;-92
2023/12/22 00:41:16;;;;;;;13.90;2.92;;;6.20;99.90;;;;;;5074364;28;20035;-92
2023/12/22 00:43:42;;;;;;;13.82;3.47;;;5.80;99.90;;;;;;5067958;28;20032;-92
2023/12/22 00:46:07;;;;;;;11.88;3.08;;;5.90;99.90;;;;;;5068017;28;20075;-91
2023/12/22 00:48:33;;;;;;;7.97;2.00;;;5.50;99.90;;;;;;5075240;28;20059;-92
2023/12/22 00:50:59;;;;;;;9.52;2.22;;;5.30;99.90;;;;;;5074738;28;20040;-92
2023/12/22 00:53:25;;;;;;;7.55;1.90;;;5.20;99.90;;;;;;5059273;28;20068;-92
2023/12/22 00:55:51;;;;;;;11.50;2.47;;;5.20;99.90;;;;;;5061258;28;20024;-91
2023/12/22 00:58:16;;;;;;;11.02;2.30;;;5.30;99.90;;;;;;5071891;28;20288;-91
2023/12/22 01:00:42;;;;;;;14.48;3.22;;;5.40;99.90;;;;;;5077005;28;20058;-92
2023/12/22 01:03:08;;;;;;;17.60;3.17;;;5.50;99.90;;;;;;5061892;28;20063;-91
2023/12/22 01:05:34;;;;;;;16.38;3.58;;;5.40;99.90;;;;;;5036197;28;20036;-92
2023/12/22 01:07:59;;;;;;;15.73;3.70;;;5.80;99.90;;;;;;5039667;28;20046;-92
2023/12/22 01:10:25;;;;;;;14.52;3.05;;;5.80;99.90;;;;;;5053856;28;20060;-92
2023/12/22 01:12:51;;;;;;;15.05;3.33;;;5.80;99.90;;;;;;5059259;28;20081;-91
2023/12/22 01:15:17;;;;;;;11.27;2.65;;;5.90;99.90;;;;;;5078197;28;20051;-90
2023/12/22 01:17:42;;;;;;;13.82;2.92;;;5.70;99.90;;;;;;5070068;28;20127;-92
2023/12/22 01:20:09;;;;;;;11.93;2.90;;;5.70;99.90;;;;;;5062486;28;20096;-92
2023/12/22 01:22:38;;;;;;;13.73;3.05;;;5.70;99.90;;;;;;5069043;28;20266;-91
2023/12/22 01:25:04;;;;;;;16.73;3.53;;;6.10;99.90;;;;;;5051657;28;20028;-91
2023/12/22 01:27:31;;;;;;;21.00;4.30;;;5.70;99.90;;;;;;5055757;28;20077;-91
2023/12/22 01:29:57;;;;;;;13.18;3.45;;;5.70;99.90;;;;;;5056220;28;20074;-91
2023/12/22 01:32:22;;;;;;;14.75;3.50;;;5.70;99.90;;;;;;5075677;28;20265;-91
2023/12/22 01:34:48;;;;;;;15.00;3.70;;;5.70;99.90;;;;;;5055140;28;20024;-91
2023/12/22 01:37:14;;;;;;;15.10;3.40;;;5.70;99.90;;;;;;5055059;28;20152;-92
2023/12/22 01:39:40;;;;;;;19.48;3.50;;;5.70;99.90;;;;;;5038122;28;20036;-92
2023/12/22 01:42:05;;;;;;;13.93;3.80;;;5.70;99.90;;;;;;5055080;28;20032;-91
2023/12/22 01:44:31;;;;;;;17.55;3.90;;;5.70;99.90;;;;;;5054413;28;20047;-92
2023/12/22 01:46:58;;;;;;;20.10;3.83;;;5.80;99.90;;;;;;5076670;28;20027;-91
2023/12/22 01:49:25;;;;;;;16.63;3.95;;;5.90;99.90;;;;;;5069726;28;20058;-92
2023/12/22 01:51:52;;;;;;;19.45;4.30;;;6.00;99.90;;;;;;5087073;28;20036;-92
2023/12/22 01:54:18;;;;;;;13.15;3.28;;;6.00;99.90;;;;;;5055144;28;20138;-90
2023/12/22 01:56:45;;;;;;;10.15;2.72;;;6.00;99.90;;;;;;5036269;28;20032;-91
2023/12/22 01:59:11;;;;;;;8.80;2.92;;;6.00;99.90;;;;;;5057991;28;20103;-92
2023/12/22 02:01:39;;;;;;;10.75;2.75;;;6.00;99.90;;;;;;5084958;28;20036;-92
2023/12/22 02:04:05;;;;;;;10.32;2.95;;;6.00;99.90;;;;;;5091614;28;20125;-92
2023/12/22 02:06:35;;;;;;;10.13;2.92;;;6.40;99.90;;;;;;5064913;28;20063;-92
2023/12/22 02:09:01;;;;;;;9.73;2.33;;;5.80;99.90;;;;;;5053923;28;20121;-91
2023/12/22 02:11:27;;;;;;;12.60;3.50;;;5.80;99.90;;;;;;5070575;28;20032;-91
2023/12/22 02:13:53;;;;;;;9.48;2.55;;;5.80;99.90;;;;;;5070694;28;20161;-90
2023/12/22 02:16:26;;;;;;;15.60;3.20;;;5.80;99.90;;;;;;5075526;28;20030;-90
2023/12/22 02:18:55;;;;;;;14.35;3.47;;;6.20;99.90;;;;;;5072497;28;20040;-90
2023/12/22 02:21:21;;;;;;;15.13;3.38;;;6.10;99.90;;;;;;5086883;28;20039;-92
2023/12/22 02:23:50;;;;;;;13.07;2.72;;;5.90;99.90;;;;;;5041455;28;20039;-92
2023/12/22 02:26:42;;;;;;;10.82;2.80;;;6.00;99.90;;;;;;5051750;28;20040;-91
2023/12/22 02:29:11;;;;;;;12.50;2.42;;;6.00;99.90;;;;;;5079892;28;20036;-91
2023/12/22 02:31:44;;;;;;;13.90;2.63;;;5.90;99.90;;;;;;5089908;28;20321;-89
2023/12/22 02:34:16;;;;;;;11.65;2.45;;;5.80;99.90;;;;;;5062406;28;20049;-91
2023/12/22 02:36:43;;;;;;;8.38;2.20;;;5.70;99.90;;;;;;5067093;28;20120;-90
2023/12/22 02:39:11;;;;;;;10.20;2.17;;;5.60;99.90;;;;;;5085827;28;20343;-91
2023/12/22 02:41:37;;;;;;;11.73;2.45;;;5.90;99.90;;;;;;5053391;28;20024;-90
2023/12/22 02:44:03;;;;;;;9.27;2.47;;;5.60;99.90;;;;;;5053640;28;20092;-90
2023/12/22 02:46:29;;;;;;;10.50;2.38;;;5.60;99.90;;;;;;5078513;28;20048;-92
2023/12/22 02:48:55;;;;;;;13.48;2.40;;;5.60;99.90;;;;;;5050945;28;20362;-92
2023/12/22 02:51:20;;;;;;;12.93;3.13;;;5.60;99.90;;;;;;5052747;28;20072;-90
2023/12/22 02:53:46;;;;;;;10.52;2.55;;;5.60;99.90;;;;;;5080856;28;20134;-91
2023/12/22 02:56:12;;;;;;;12.68;3.05;;;5.70;99.90;;;;;;5053229;28;20077;-91
2023/12/22 02:58:37;;;;;;;13.05;2.97;;;6.90;99.90;;;;;;5076500;28;20028;-90
2023/12/22 03:01:03;;;;;;;13.13;3.83;;;5.70;99.90;;;;;;5061282;28;20052;-93
2023/12/22 03:03:29;;;;;;;13.60;3.90;;;6.20;99.90;;;;;;5055160;28;20036;-91
2023/12/22 03:05:54;;;;;;;15.48;3.35;;;5.90;99.90;;;;;;5053156;28;20036;-88
2023/12/22 03:08:20;;;;;;;16.98;3.63;;;6.00;99.90;;;;;;5050256;28;20032;-91
2023/12/22 03:10:46;;;;;;;11.13;2.35;;;5.70;99.90;;;;;;5053325;28;20020;-92
2023/12/22 03:13:11;;;;;;;5.93;2.00;;;5.60;99.90;;;;;;5051875;28;20231;-92
2023/12/22 03:15:37;;;;;;;11.13;2.55;;;5.50;99.90;;;;;;5041619;28;20107;-91
2023/12/22 03:18:03;;;;;;;8.38;2.10;;;5.40;99.90;;;;;;5058774;28;20027;-93
2023/12/22 03:20:29;;;;;;;9.30;2.40;;;5.30;99.90;;;;;;5036567;28;20059;-93
2023/12/22 03:22:54;;;;;;;16.15;3.35;;;5.20;99.90;;;;;;5053408;28;20097;-92
2023/12/22 03:25:20;;;;;;;11.65;2.65;;;5.10;99.90;;;;;;5067118;28;20098;-92
2023/12/22 03:27:46;;;;;;;7.93;2.17;;;5.10;99.90;;;;;;5077032;28;20035;-93
2023/12/22 03:30:12;;;;;;;11.52;2.55;;;5.00;99.90;;;;;;5060426;28;20033;-92
2023/12/22 03:32:38;;;;;;;9.20;2.10;;;5.00;99.90;;;;;;5036611;28;20036;-92
2023/12/22 03:35:04;;;;;;;13.57;2.72;;;5.10;99.90;;;;;;5053047;28;20035;-92
2023/12/22 03:37:29;;;;;;;9.38;2.35;;;5.10;99.90;;;;;;5052919;28;20051;-92
2023/12/22 03:39:55;;;;;;;11.82;3.15;;;5.10;99.90;;;;;;5067078;28;20040;-92
2023/12/22 03:42:21;;;;;;;14.40;2.90;;;5.20;99.90;;;;;;5054740;28;20103;-92
2023/12/22 03:44:46;;;;;;;14.98;2.92;;;5.20;99.90;;;;;;5096690;28;20028;-93
2023/12/22 03:47:13;;;;;;;16.88;4.20;;;5.30;99.90;;;;;;5039786;28;20031;-93
2023/12/22 03:49:38;;;;;;;15.75;2.90;;;5.40;99.90;;;;;;5088508;28;20089;-92
2023/12/22 03:52:04;;;;;;;9.68;2.38;;;5.50;99.90;;;;;;5036547;28;20024;-89
2023/12/22 03:54:30;;;;;;;9.40;2.22;;;5.60;99.90;;;;;;5051797;28;20036;-91
2023/12/22 03:56:56;;;;;;;10.18;2.10;;;5.70;99.90;;;;;;5052392;28;20027;-92
2023/12/22 03:59:21;;;;;;;10.95;2.40;;;5.70;99.90;;;;;;5037489;28;20056;-91
2023/12/22 04:01:52;;;;;;;10.70;3.17;;;5.80;99.90;;;;;;5063710;28;20171;-92
2023/12/22 04:04:18;;;;;;;10.32;2.72;;;5.90;99.90;;;;;;5022983;28;20020;-91
2023/12/22 04:06:44;;;;;;;10.77;2.50;;;6.00;99.90;;;;;;5058907;28;20270;-92
2023/12/22 04:09:10;;;;;;;12.32;2.53;;;6.10;99.90;;;;;;5048812;28;20269;-90
2023/12/22 04:11:36;;;;;;;10.15;2.90;;;6.10;99.90;;;;;;5061217;28;20165;-91
2023/12/22 04:14:02;;;;;;;9.82;2.53;;;6.10;99.90;;;;;;5068521;28;20056;-91
2023/12/22 04:16:28;;;;;;;10.95;2.80;;;6.00;99.90;;;;;;5052712;28;20288;-91
2023/12/22 04:18:54;;;;;;;12.50;2.60;;;5.90;99.90;;;;;;5083027;28;20382;-92
2023/12/22 04:21:19;;;;;;;12.77;2.70;;;5.80;99.90;;;;;;5052526;28;20181;-90
2023/12/22 04:23:45;;;;;;;13.77;3.45;;;5.80;99.90;;;;;;5053739;28;20032;-91
2023/12/22 04:26:11;;;;;;;21.88;3.95;;;6.60;99.90;;;;;;5083152;28;20028;-92
2023/12/22 04:28:37;;;;;;;15.73;3.65;;;5.90;99.90;;;;;;5055365;28;20089;-91
2023/12/22 04:31:02;;;;;;;12.98;3.30;;;5.80;99.90;;;;;;5068686;28;20296;-91
2023/12/22 04:33:28;;;;;;;11.63;2.70;;;5.80;99.90;;;;;;5052070;28;20032;-91
2023/12/22 04:35:54;;;;;;;15.32;3.42;;;5.80;99.90;;;;;;5097537;28;20035;-91
2023/12/22 04:38:20;;;;;;;12.68;3.22;;;5.80;99.90;;;;;;5083742;28;20069;-90
2023/12/22 04:40:45;;;;;;;13.13;3.58;;;5.90;99.90;;;;;;5050471;28;20249;-91
2023/12/22 04:43:11;;;;;;;12.93;3.13;;;6.00;99.90;;;;;;5052392;28;20044;-92
2023/12/22 04:45:36;;;;;;;13.32;2.80;;;6.30;99.90;;;;;;5059608;28;20028;-92
2023/12/22 04:48:02;;;;;;;16.77;3.50;;;6.50;99.90;;;;;;5096812;28;20055;-91
2023/12/22 04:50:28;;;;;;;15.20;3.47;;;6.60;99.90;;;;;;5067912;28;20032;-92
2023/12/22 04:52:54;;;;;;;18.27;3.35;;;6.60;99.90;;;;;;5081941;28;20024;-91
2023/12/22 04:55:20;;;;;;;15.48;3.40;;;6.60;99.90;;;;;;5064397;28;20037;-90
2023/12/22 04:57:45;;;;;;;12.75;3.25;;;6.70;99.90;;;;;;5049276;28;20047;-92
2023/12/22 05:00:12;;;;;;;12.63;2.85;;;6.80;99.90;;;;;;5056331;28;20051;-91
2023/12/22 05:02:38;;;;;;;13.05;2.90;;;6.80;99.90;;;;;;5061748;28;20099;-92
2023/12/22 05:05:04;;;;;;;11.13;2.75;;;6.80;99.90;;;;;;5031755;28;20047;-91
2023/12/22 05:07:30;;;;;;;13.70;3.38;;;6.80;99.90;;;;;;5047864;28;20242;-90
2023/12/22 05:09:55;;;;;;;11.98;3.03;;;6.80;99.90;;;;;;5067580;28;20031;-92
2023/12/22 05:12:21;;;;;;;16.58;2.90;;;6.80;99.90;;;;;;5044881;28;20290;-91
2023/12/22 05:14:47;;;;;;;11.95;3.22;;;6.80;99.90;;;;;;5068434;28;20038;-92
2023/12/22 05:17:13;;;;;;;12.85;3.38;;;6.80;99.90;;;;;;5034741;28;20060;-90
2023/12/22 05:19:38;;;;;;;11.05;2.88;;;6.80;99.90;;;;;;5084967;28;20100;-91
2023/12/22 05:22:04;;;;;;;11.60;3.22;;;6.80;99.90;;;;;;5038825;28;20032;-91
2023/12/22 05:24:30;;;;;;;11.10;2.80;;;6.80;99.90;;;;;;5049060;28;20032;-91
2023/12/22 05:26:55;;;;;;;12.75;3.05;;;6.80;99.90;;;;;;5055500;28;20126;-91
2023/12/22 05:29:21;;;;;;;11.07;2.60;;;6.80;99.90;;;;;;5068867;28;20032;-91
2023/12/22 05:31:47;;;;;;;12.57;2.75;;;6.90;99.90;;;;;;5070608;28;20044;-91
2023/12/22 05:34:12;;;;;;;14.00;3.10;;;6.90;99.90;;;;;;5072553;28;20028;-91
2023/12/22 05:36:38;;;;;;;14.23;3.15;;;6.90;99.90;;;;;;5070863;28;20206;-92
2023/12/22 05:39:04;;;;;;;20.27;3.88;;;7.00;99.90;;;;;;5056749;28;20039;-91
2023/12/22 05:41:29;;;;;;;13.40;3.67;;;6.90;99.90;;;;;;5062819;28;20048;-90
2023/12/22 05:43:55;;;;;;;11.68;3.03;;;6.90;99.90;;;;;;5064988;28;20067;-92
2023/12/22 05:46:21;;;;;;;13.90;3.85;;;6.90;99.90;;;;;;5056953;28;20095;-91
2023/12/22 05:48:47;;;;;;;13.10;3.00;;;6.90;99.90;;;;;;5051921;28;20044;-92
2023/12/22 05:51:13;;;;;;;11.85;3.17;;;6.90;99.90;;;;;;5063581;28;20135;-92
2023/12/22 05:53:42;;;;;;;12.35;2.95;;;6.90;99.90;;;;;;5087850;28;20032;-90
2023/12/22 05:56:19;;;;;;;11.65;2.58;;;6.90;99.90;;;;;;5068584;28;20032;-89
2023/12/22 05:58:45;;;;;;;13.75;3.40;;;6.90;99.90;;;;;;5059490;28;20051;-91
2023/12/22 06:01:18;;;;;;;17.13;3.85;;;6.90;99.90;;;;;;5069006;28;20089;-90
2023/12/22 06:03:44;;;;;;;15.25;3.78;;;6.90;99.90;;;;;;5070228;28;20060;-90
2023/12/22 06:06:10;;;;;;;14.48;3.63;;;6.90;99.90;;;;;;5051103;28;20063;-91
2023/12/22 06:08:38;;;;;;;13.48;3.20;;;6.90;99.90;;;;;;5050427;28;20044;-92
2023/12/22 06:11:04;;;;;;;15.55;3.42;;;6.90;99.90;;;;;;5054371;28;20043;-91
2023/12/22 06:13:29;;;;;;;14.75;3.80;;;6.90;99.90;;;;;;5063145;28;20074;-88
2023/12/22 06:15:55;;;;;;;16.05;3.97;;;6.90;99.90;;;;;;5053787;28;20020;-92
2023/12/22 06:18:21;;;;;;;12.02;2.85;;;6.90;99.90;;;;;;5070211;28;20053;-90
2023/12/22 06:20:47;;;;;;;15.50;3.25;;;6.90;99.90;;;;;;5052487;28;20028;-92
2023/12/22 06:23:12;;;;;;;14.75;3.47;;;7.00;99.90;;;;;;5035627;28;20031;-90
2023/12/22 06:25:38;;;;;;;15.93;3.78;;;7.00;99.90;;;;;;5068232;28;20027;-91
2023/12/22 06:28:04;;;;;;;20.55;3.58;;;7.00;99.90;;;;;;5044640;28;20036;-90
2023/12/22 06:30:30;;;;;;;17.00;3.65;;;7.00;99.90;;;;;;5051675;28;20038;-91
2023/12/22 06:32:56;;;;;;;17.95;3.65;;;7.30;99.90;;;;;;5053489;28;20050;-91
2023/12/22 06:35:25;;;;;;;17.80;3.58;;;7.00;99.90;;;;;;5063800;28;20031;-92
2023/12/22 06:37:51;;;;;;;18.70;4.35;;;7.00;99.90;;;;;;5072025;28;20179;-90
2023/12/22 06:40:20;;;;;;;13.35;3.70;;;6.90;99.90;;;;;;5054724;28;20036;-90
2023/12/22 06:42:46;;;;;;;16.73;3.78;;;6.90;99.90;;;;;;5083761;28;20020;-91
2023/12/22 06:45:12;;;;;;;13.70;3.22;;;6.90;99.90;;;;;;5052789;28;20078;-91
2023/12/22 06:47:37;;;;;;;12.77;2.70;;;6.70;99.90;;;;;;5082539;28;20039;-92
2023/12/22 06:50:03;;;;;;;8.40;2.20;;;6.30;99.90;;;;;;5034776;28;20038;-92
2023/12/22 06:52:30;;;;;;;11.57;3.30;;;6.00;99.90;;;;;;5052538;28;20024;-88
2023/12/22 06:54:56;;;;;;;12.45;2.85;;;5.90;99.90;;;;;;5068036;28;20032;-90
2023/12/22 06:57:22;;;;;;;11.27;2.40;;;6.30;99.90;;;;;;5047943;28;20039;-91
2023/12/22 06:59:49;;;;;;;8.27;2.17;;;5.90;99.90;;;;;;5067610;28;20028;-91
2023/12/22 07:02:15;;;;;;;10.50;2.40;;;5.80;99.90;;;;;;5066309;28;20027;-91
2023/12/22 07:05:08;;;;;;;9.45;2.13;;;6.80;99.90;;;;;;5048921;28;20102;-92
2023/12/22 07:07:34;;;;;;;9.50;2.20;;;5.90;99.90;;;;;;5066690;28;20028;-92
2023/12/22 07:10:00;;;;;;;10.35;2.33;;;5.90;99.90;;;;;;5049357;28;20080;-91
2023/12/22 07:12:25;;;;;;;12.30;2.60;;;5.90;99.90;;;;;;5034610;28;20262;-91
2023/12/22 07:14:51;;;;;;;13.60;3.05;;;5.90;99.90;;;;;;5046209;28;20237;-91
2023/12/22 07:17:17;;;;;;;12.40;2.53;;;5.90;99.90;;;;;;5056148;28;20136;-91
2023/12/22 07:19:43;;;;;;;13.15;3.05;;;;;;;;;;5033075;28;20027;-92
2023/12/22 07:22:09;;;;;;;11.70;2.60;;;6.00;99.90;;;;;;5058888;28;20032;-91
2023/12/22 07:24:34;;;;;;;12.63;2.80;;;6.10;99.90;;;;;;5061952;28;20089;-91
2023/12/22 07:27:00;;;;;;;11.50;3.20;;;6.20;99.90;;;;;;5068748;28;20194;-91
2023/12/22 07:29:26;;;;;;;11.70;2.70;;;6.00;99.90;;;;;;5065607;28;20033;-91
2023/12/22 07:31:54;;;;;;;11.95;3.28;;;5.90;99.90;;;;;;5080542;28;20043;-91
2023/12/22 07:34:22;;;;;;;11.13;2.85;;;5.80;99.90;;;;;;5049566;28;20313;-90
2023/12/22 07:36:48;;;;;;;8.93;2.20;;;5.70;99.90;;;;;;5070022;28;20040;-90
2023/12/22 07:39:14;;;;;;;13.05;2.47;;;6.20;99.90;;;;;;5065512;28;20064;-92
2023/12/22 07:41:40;;;;;;;10.75;2.97;;;6.00;99.90;;;;;;5080998;28;20043;-92
2023/12/22 07:44:06;;;;;;;13.63;2.60;;;5.60;99.90;;;;;;5076330;28;20039;-91
2023/12/22 07:46:31;;;;;;;10.95;2.58;;;5.60;99.90;;;;;;5049349;28;20094;-91
2023/12/22 07:48:57;;;;;;;14.88;3.47;;;5.50;99.90;;;;;;5032734;28;20343;-91
2023/12/22 07:51:23;;;;;;;13.70;3.20;;;5.50;99.90;;;;;;5050312;28;20166;-91
2023/12/22 07:53:49;;;;;;;16.33;2.97;;;5.50;99.90;;;;;;5067736;28;20035;-91
2023/12/22 07:56:14;;;;;;;10.43;2.95;;;5.50;99.90;;;;;;5053795;28;20043;-92
2023/12/22 07:58:40;;;;;;;14.93;3.33;;;5.50;99.90;;;;;;5069486;28;20034;-91
2023/12/22 08:01:06;;;;;;;15.63;3.47;;;5.70;99.90;;;;;;5048392;28;20071;-91
2023/12/22 08:03:33;;;;;;;15.02;3.33;;;5.60;99.90;;;;;;5046682;28;20038;-92
2023/12/22 08:05:58;;;;;;;16.02;3.50;;;5.60;99.90;;;;;;5064082;28;20078;-91
2023/12/22 08:08:24;;;;;;;16.15;3.20;;;5.60;99.90;;;;;;5063453;28;20036;-91
2023/12/22 08:10:50;;;;;;;15.45;3.35;;;5.60;99.90;;;;;;5048369;28;20420;-90
2023/12/22 08:13:17;;;;;;;16.30;3.50;;;5.60;99.90;;;;;;5065065;28;20051;-92
2023/12/22 08:15:44;;;;;;;16.63;3.65;;;5.60;99.90;;;;;;5081148;28;20093;-91
2023/12/22 08:18:10;;;;;;;14.80;3.20;;;5.70;99.90;;;;;;5065226;28;20218;-91
2023/12/22 08:20:35;;;;;;;26.25;4.43;;;5.70;99.90;;;;;;5063999;28;20266;-92
2023/12/22 08:23:01;;;;;;;17.30;3.63;;;5.70;99.90;;;;;;5052108;28;20073;-91
2023/12/22 08:25:27;;;;;;;16.60;3.40;;;5.80;99.90;;;;;;5073170;28;20032;-91
2023/12/22 08:27:52;;;;;;;16.42;4.20;;;5.80;99.90;;;;;;5050425;28;20036;-91
2023/12/22 08:30:18;;;;;;;15.68;3.35;;;5.80;99.90;;;;;;5065501;28;20027;-92
2023/12/22 08:32:44;;;;;;;12.48;3.17;;;5.90;99.90;;;;;;5064800;28;20270;-92
2023/12/22 08:35:10;;;;;;;15.38;3.13;;;6.00;99.90;;;;;;5061481;28;20032;-91
2023/12/22 08:37:37;;;;;;;12.65;3.58;;;6.10;99.90;;;;;;5033156;28;20036;-92
2023/12/22 08:40:03;;;;;;;12.90;3.60;;;6.10;99.90;;;;;;5078002;28;20227;-89
2023/12/22 08:42:30;;;;;;;12.27;2.90;;;6.20;99.90;;;;;;5034879;28;20280;-90
2023/12/22 08:44:56;;;;;;;16.73;3.67;;;6.20;99.90;;;;;;5047706;28;20039;-91
2023/12/22 08:47:21;;;;;;;12.68;3.40;;;6.20;99.90;;;;;;5048938;28;20024;-90
2023/12/22 08:49:47;;;;;;;13.20;3.55;;;6.20;99.90;;;;;;5066272;28;20032;-90
2023/12/22 08:52:13;;;;;;;18.25;3.47;;;6.20;99.90;;;;;;5026001;28;20111;-91
2023/12/22 08:54:39;;;;;;;17.30;3.20;;;6.20;99.90;;;;;;5069152;28;20036;-90
2023/12/22 08:57:05;;;;;;;16.15;3.10;;;6.20;99.90;;;;;;5033291;28;20027;-91
2023/12/22 08:59:30;;;;;;;13.57;2.95;;;6.30;99.90;;;;;;5069607;28;20054;-92
2023/12/22 09:01:56;;;;;;;13.25;2.60;;;6.40;99.90;;;;;;5070984;28;20035;-91
2023/12/22 09:04:22;;;;;;;16.70;2.80;;;6.40;99.90;;;;;;5053333;28;20050;-91
2023/12/22 09:06:50;;;;;;;16.08;4.22;;;6.50;99.90;;;;;;5099056;28;20050;-91
2023/12/22 09:09:16;;;;;;;14.75;2.92;;;6.50;99.90;;;;;;5070292;28;20028;-91
2023/12/22 09:11:41;;;;;;;11.15;3.13;;;6.50;99.90;;;;;;5051253;28;20347;-92
2023/12/22 09:14:10;;;;;;;11.35;2.60;;;6.50;99.90;;;;;;5090067;28;20067;-89
2023/12/22 09:16:36;;;;;;;12.38;2.95;;;6.50;99.90;;;;;;5030960;28;20050;-92
2023/12/22 09:19:03;;;;;;;12.40;2.75;;;6.60;99.90;;;;;;5055573;28;20036;-90
2023/12/22 09:21:28;;;;;;;12.57;3.03;;;6.60;99.90;;;;;;5051141;28;20077;-91
2023/12/22 09:23:54;;;;;;;17.63;3.00;;;6.60;99.90;;;;;;5076824;28;20225;-90
2023/12/22 09:26:20;;;;;;;15.88;3.42;;;6.60;99.90;;;;;;5056812;28;20307;-91
2023/12/22 09:28:46;;;;;;;14.88;3.03;;;6.60;99.90;;;;;;5052524;28;20716;-91
2023/12/22 09:31:12;;;;;;;11.13;2.70;;;6.60;99.90;;;;;;5069314;28;20071;-91
2023/12/22 09:33:40;;;;;;;14.50;3.47;;;6.60;99.90;;;;;;5067969;28;20032;-91
2023/12/22 09:36:06;;;;;;;15.45;2.97;;;6.60;99.90;;;;;;5082463;28;20028;-90
2023/12/22 09:38:31;;;;;;;14.45;3.45;;;6.60;99.90;;;;;;5064013;28;20040;-91
2023/12/22 09:40:58;;;;;;;12.35;2.50;;;7.00;99.90;;;;;;5066894;28;20039;-90
2023/12/22 09:43:24;;;;;;;13.57;3.20;;;6.70;99.90;;;;;;5082406;28;20185;-90
2023/12/22 09:45:51;;;;;;;9.45;2.30;;;6.70;99.90;;;;;;5067965;28;20047;-91
2023/12/22 09:48:27;;;;;;;12.13;2.70;;;6.70;99.90;;;;;;5050995;28;20056;-90
2023/12/22 09:50:54;;;;;;;13.30;2.67;;;6.70;99.90;;;;;;5066398;28;20027;-90
2023/12/22 09:53:20;;;;;;;8.60;2.40;;;6.80;99.90;;;;;;5083551;28;20039;-92
2023/12/22 09:55:48;;;;;;;14.82;2.95;;;6.80;99.90;;;;;;5049454;28;20025;-90
2023/12/22 09:58:16;;;;;;;10.25;2.40;;;6.90;99.90;;;;;;5050504;28;20028;-90
2023/12/22 10:00:43;;;;;;;11.00;2.38;;;6.90;99.90;;;;;;5068427;28;20028;-91
2023/12/22 10:03:11;;;;;;;10.07;2.70;;;6.90;99.90;;;;;;5067066;28;20121;-90
2023/12/22 10:05:39;;;;;;;11.80;2.28;;;7.00;99.90;;;;;;5080843;28;20036;-91
2023/12/22 10:08:05;;;;;;;14.85;2.60;;;7.00;99.90;;;;;;5068311;28;20056;-91
2023/12/22 10:10:32;;;;;;;9.45;2.15;;;7.10;99.90;;;;;;5081492;28;20090;-90
2023/12/22 10:12:59;;;;;;;15.50;3.33;;;7.10;99.90;;;;;;5051026;28;20267;-89
2023/12/22 10:15:26;;;;;;;10.65;2.45;;;7.10;99.90;;;;;;5049070;28;20034;-91
2023/12/22 10:17:53;;;;;;;12.00;3.17;;;7.20;99.90;;;;;;5068775;28;20127;-91
2023/12/22 10:20:19;;;;;;;10.07;2.53;;;7.20;99.90;;;;;;5067391;28;20074;-91
2023/12/22 10:22:46;;;;;;;10.70;2.20;;;7.30;99.90;;;;;;5074672;28;20077;-90
2023/12/22 10:25:16;;;;;;;11.38;2.67;;;7.20;99.90;;;;;;5048504;28;20059;-90
2023/12/22 10:27:42;;;;;;;12.88;3.42;;;7.30;99.90;;;;;;5070642;28;20059;-90
2023/12/22 10:30:09;;;;;;;14.43;2.53;;;7.30;99.90;;;;;;5082172;28;20303;-91
2023/12/22 10:32:41;;;;;;;11.40;2.83;;;7.30;99.90;;;;;;5067640;28;20092;-91
2023/12/22 10:35:08;;;;;;;15.23;2.63;;;7.40;99.90;;;;;;5064130;28;20056;-91
2023/12/22 10:37:34;;;;;;;8.93;2.60;;;7.70;99.90;;;;;;5051860;28;20113;-91
2023/12/22 10:39:59;;;;;;;13.40;3.47;;;7.40;99.90;;;;;;5050356;28;20032;-90
2023/12/22 10:42:26;;;;;;;13.30;3.13;;;7.40;99.90;;;;;;5062552;28;20028;-90
2023/12/22 10:44:53;;;;;;;10.35;2.47;;;7.40;99.90;;;;;;5084145;28;20282;-91
2023/12/22 10:47:21;;;;;;;13.60;2.97;;;7.40;99.90;;;;;;5066551;28;20220;-91
2023/12/22 10:49:46;;;;;;;10.18;2.47;;;7.40;99.90;;;;;;5073400;28;20032;-91
2023/12/22 10:52:18;;;;;;;13.27;2.50;;;7.40;99.90;;;;;;5049473;28;20297;-91
2023/12/22 10:54:44;;;;;;;11.03;2.93;;;7.40;99.90;;;;;;5065725;28;20173;-92
2023/12/22 10:57:11;;;;;;;11.55;2.50;;;7.40;99.90;;;;;;5050421;28;20047;-91
2023/12/22 10:59:44;;;;;;;11.50;2.58;;;7.40;99.90;;;;;;5098386;28;20040;-91
2023/12/22 11:02:16;;;;;;;10.60;3.05;;;7.40;99.90;;;;;;5084705;28;20047;-90
2023/12/22 11:04:57;;;;;;;12.10;3.30;;;7.40;99.90;;;;;;5115595;28;20036;-92
2023/12/22 11:07:24;;;;;;;15.73;2.80;;;7.40;99.90;;;;;;5064123;28;20290;-91
2023/12/22 11:09:54;;;;;;;11.48;2.75;;;7.50;99.90;;;;;;5065536;28;20042;-92
2023/12/22 11:12:20;;;;;;;11.48;3.63;;;7.50;99.90;;;;;;5078154;28;20035;-89
2023/12/22 11:14:50;;;;;;;11.13;2.63;;;7.50;99.90;;;;;;5047978;28;20044;-90
2023/12/22 11:17:20;;;;;;;12.90;2.65;;;7.50;99.90;;;;;;5049017;28;20048;-91
2023/12/22 11:19:53;;;;;;;12.73;2.92;;;7.50;99.90;;;;;;5062991;28;20067;-90
2023/12/22 11:22:19;;;;;;;13.18;2.70;;;7.50;99.90;;;;;;5081219;28;20201;-91
2023/12/22 11:24:48;;;;;;;11.43;2.90;;;7.50;99.90;;;;;;5077277;28;20054;-91
2023/12/22 11:27:18;;;;;;;13.85;2.95;;;7.60;99.90;;;;;;5064489;28;20192;-90
2023/12/22 11:29:49;;;;;;;11.70;2.95;;;7.60;99.90;;;;;;5067232;28;20048;-91
2023/12/22 11:32:16;;;;;;;12.32;2.90;;;7.60;99.90;;;;;;5067519;28;20074;-89
2023/12/22 11:34:47;;;;;;;12.05;2.80;;;7.60;99.90;;;;;;5048133;28;20306;-89
2023/12/22 11:37:15;;;;;;;12.25;2.67;;;7.60;99.90;;;;;;5027190;28;20074;-91
2023/12/22 11:39:41;;;;;;;14.90;3.10;;;7.60;99.90;;;;;;5063667;28;20048;-91
2023/12/22 11:42:11;;;;;;;11.32;2.67;;;7.60;99.90;;;;;;5060068;28;21018;-91
2023/12/22 11:44:37;;;;;;;13.52;2.90;;;7.60;99.90;;;;;;5083079;28;20055;-91
2023/12/22 11:47:07;;;;;;;12.35;2.85;;;7.70;99.90;;;;;;5028385;28;20048;-90
2023/12/22 11:49:36;;;;;;;12.18;2.60;;;7.70;99.90;;;;;;5046425;28;20236;-91
2023/12/22 11:52:15;;;;;;;9.50;2.78;;;7.70;99.90;;;;;;5063679;28;20042;-90
2023/12/22 11:54:45;;;;;;;12.57;2.40;;;7.70;99.90;;;;;;5095049;28;20051;-90
2023/12/22 11:57:31;;;;;;;13.50;2.47;;;7.70;99.90;;;;;;5047133;28;20177;-90
2023/12/22 11:59:58;;;;;;;12.85;2.85;;;7.70;99.90;;;;;;5064094;28;20219;-90
2023/12/22 12:02:24;;;;;;;12.70;2.70;;;7.80;99.90;;;;;;5080454;28;20290;-91
2023/12/22 12:04:53;;;;;;;10.07;2.58;;;7.70;99.90;;;;;;5046461;28;20122;-89
2023/12/22 12:07:45;;;;;;;12.30;3.28;;;7.80;99.90;;;;;;5080216;28;20051;-92
2023/12/22 12:10:35;;;;;;;12.85;2.90;;;7.80;99.90;;;;;;5058702;28;20089;-90
2023/12/22 12:13:11;;;;;;;14.55;2.83;;;7.80;99.90;;;;;;5067726;28;20198;-90
2023/12/22 12:15:38;;;;;;;15.20;3.13;;;7.80;99.90;;;;;;5055134;28;20028;-90
2023/12/22 12:18:08;;;;;;;11.35;2.75;;;7.70;99.90;;;;;;5080834;28;20025;-90
2023/12/22 12:20:34;;;;;;;11.30;2.95;;;7.70;99.90;;;;;;5076909;28;20095;-91
2023/12/22 12:23:01;;;;;;;10.68;2.75;;;7.70;99.90;;;;;;5050590;28;20054;-91
2023/12/22 12:25:32;;;;;;;15.23;3.20;;;7.80;99.90;;;;;;5065030;28;20066;-90
2023/12/22 12:28:06;;;;;;;14.60;2.95;;;7.80;99.90;;;;;;5066690;28;20020;-90
2023/12/22 12:30:33;;;;;;;12.90;3.00;;;7.80;99.90;;;;;;5080928;28;20051;-91
2023/12/22 12:33:09;;;;;;;8.30;2.20;;;7.80;99.90;;;;;;5080858;28;20036;-91
2023/12/22 12:35:39;;;;;;;11.77;2.60;;;7.80;99.90;;;;;;5067481;28;20166;-90
2023/12/22 12:38:05;;;;;;;11.00;2.80;;;7.80;99.90;;;;;;5068839;28;20040;-91
2023/12/22 12:40:33;;;;;;;10.43;3.33;;;7.70;99.90;;;;;;5067058;28;20235;-91
2023/12/22 12:43:00;;;;;;;12.30;2.40;;;7.70;99.90;;;;;;5069469;28;20201;-90
2023/12/22 12:45:26;;;;;;;14.70;2.70;;;7.70;99.90;;;;;;5069594;28;20036;-90
2023/12/22 12:47:58;;;;;;;11.90;2.65;;;7.70;99.90;;;;;;5075307;28;20086;-90